Time;durP1;ratioP1;P1;durP2;ratioP2;P2;SDS_P1;SDS_P2;PMS_P1;PMS_P2;Temp;Humidity;BMP_temperature;BMP_pressure;BME280_temperature;BME280_humidity;BME280_pressure;Samples;Min_cycle;Max_cycle;Signal;HPM_P1;HPM_P2
2023/03/17 00:01:36;;;;;;;3.20;0.98;;;;;;;3.51;100.00;98279.44;15280274;19;20023;-48
2023/03/17 00:07:02;;;;;;;1.98;1.20;;;;;;;3.51;100.00;98278.56;15273880;19;20010;-47
2023/03/17 00:12:30;;;;;;;1.58;1.08;;;;;;;3.52;100.00;98275.81;15276214;19;20635;-46
2023/03/17 00:17:56;;;;;;;1.50;1.13;;;;;;;3.60;100.00;98279.66;15285046;19;20347;-52
2023/03/17 00:23:24;;;;;;;4.18;1.20;;;;;;;3.58;100.00;98271.81;15277487;19;20038;-52
2023/03/17 00:28:45;;;;;;;2.38;1.00;;;;;;;3.57;100.00;98251.47;15286016;19;20373;-54
2023/03/17 00:34:10;;;;;;;1.48;1.00;;;;;;;3.59;100.00;98244.16;15275085;19;20021;-49
2023/03/17 00:39:35;;;;;;;1.65;1.15;;;;;;;3.60;100.00;98232.56;15275942;19;20081;-47
2023/03/17 00:45:11;;;;;;;1.27;1.00;;;;;;;3.59;100.00;98228.19;15275421;19;20497;-47
2023/03/17 00:50:37;;;;;;;0.93;0.80;;;;;;;3.62;100.00;98227.13;15279633;19;20010;-48
2023/03/17 00:56:02;;;;;;;2.58;1.17;;;;;;;3.62;100.00;98219.97;15281047;19;20015;-48
2023/03/17 01:01:30;;;;;;;1.10;1.00;;;;;;;3.72;100.00;98227.22;15269646;19;20033;-47
2023/03/17 01:06:57;;;;;;;2.50;0.95;;;;;;;3.79;100.00;98218.59;15275447;19;20037;-47
2023/03/17 01:12:22;;;;;;;2.42;0.90;;;;;;;3.79;100.00;98218.59;15271197;19;20091;-45
2023/03/17 01:17:50;;;;;;;1.02;0.95;;;;;;;3.83;100.00;98203.22;15277909;19;20093;-50
2023/03/17 01:23:15;;;;;;;1.08;0.90;;;;;;;3.85;100.00;98201.28;15273475;19;20643;-48
2023/03/17 01:28:40;;;;;;;1.73;0.93;;;;;;;3.84;100.00;98191.59;15281235;19;20011;-48
2023/03/17 01:34:08;;;;;;;1.70;0.90;;;;;;;3.82;100.00;98190.88;15273339;19;20017;-47
2023/03/17 01:39:33;;;;;;;1.80;0.98;;;;;;;3.94;100.00;98195.19;15277921;19;20024;-47
2023/03/17 01:45:01;;;;;;;1.63;1.00;;;;;;;3.92;100.00;98186.50;15267898;19;20094;-47
2023/03/17 01:50:29;;;;;;;1.63;0.98;;;;;;;3.93;100.00;98166.00;15277501;19;20478;-48
2023/03/17 01:55:55;;;;;;;1.35;1.00;;;;;;;3.99;100.00;98153.03;15277721;19;20015;-48
2023/03/17 02:01:20;;;;;;;1.67;1.00;;;;;;;4.01;100.00;98148.44;15274555;19;20097;-47
2023/03/17 02:06:50;;;;;;;2.30;1.00;;;;;;;4.13;99.82;98145.72;15273799;19;20014;-49
2023/03/17 02:12:17;;;;;;;1.20;1.00;;;;;;;4.14;100.00;98150.09;15273021;19;20014;-47
2023/03/17 02:17:42;;;;;;;1.83;1.00;;;;;;;4.13;100.00;98153.72;15271539;19;20093;-45
2023/03/17 02:23:11;;;;;;;1.02;0.85;;;;;;;4.19;100.00;98153.19;15271511;19;20032;-46
2023/03/17 02:28:38;;;;;;;1.23;0.90;;;;;;;4.19;100.00;98155.03;15271808;19;20010;-47
2023/03/17 02:34:03;;;;;;;2.00;0.90;;;;;;;4.24;99.84;98132.34;15267554;19;20010;-47
2023/03/17 02:39:30;;;;;;;1.02;0.80;;;;;;;4.24;100.00;98127.00;15274612;19;20019;-48
2023/03/17 02:44:56;;;;;;;1.20;0.73;;;;;;;4.28;100.00;98133.78;15267338;19;20082;-52
2023/03/17 02:50:24;;;;;;;0.80;0.80;;;;;;;4.27;100.00;98118.75;15268868;19;20019;-49
2023/03/17 02:55:52;;;;;;;3.08;0.90;;;;;;;4.34;100.00;98128.88;15270929;19;20078;-50
2023/03/17 03:01:17;;;;;;;1.40;0.85;;;;;;;4.42;100.00;98124.59;15270380;19;20078;-53
2023/03/17 03:06:41;;;;;;;0.98;0.70;;;;;;;4.40;100.00;98131.06;15266969;19;20568;-51
2023/03/17 03:12:10;;;;;;;1.55;0.90;;;;;;;4.45;100.00;98132.38;15269262;19;20082;-51
2023/03/17 03:17:35;;;;;;;0.80;0.80;;;;;;;4.52;100.00;98139.84;15272480;19;20086;-50
2023/03/17 03:22:59;;;;;;;0.95;0.70;;;;;;;4.47;100.00;98129.56;15260600;19;20007;-48
2023/03/17 03:28:27;;;;;;;1.00;0.73;;;;;;;4.43;100.00;98136.13;15268969;19;20010;-51
2023/03/17 03:33:52;;;;;;;1.75;0.80;;;;;;;4.45;100.00;98139.50;15266645;19;20478;-47
2023/03/17 03:39:18;;;;;;;1.17;0.80;;;;;;;4.47;97.80;98122.38;15267817;19;20387;-52
2023/03/17 03:44:52;;;;;;;0.63;0.60;;;;;;;4.49;95.87;98114.28;15267218;19;20022;-48
2023/03/17 03:50:16;;;;;;;1.48;0.80;;;;;;;4.56;93.03;98106.59;15271144;19;20022;-47
2023/03/17 03:55:41;;;;;;;1.33;0.80;;;;;;;4.55;91.41;98102.22;15263878;19;20021;-51
2023/03/17 04:01:11;;;;;;;1.15;0.80;;;;;;;4.58;95.18;98097.47;15270045;19;20042;-49
2023/03/17 04:06:36;;;;;;;1.10;0.80;;;;;;;4.68;83.07;98086.00;15266676;19;20024;-48
2023/03/17 04:12:00;;;;;;;1.10;0.80;;;;;;;4.71;91.33;98107.09;15266706;19;20021;-49
2023/03/17 04:17:28;;;;;;;1.23;0.90;;;;;;;4.76;97.96;98096.88;15272561;19;20014;-45
2023/03/17 04:22:52;;;;;;;1.05;0.70;;;;;;;4.70;84.84;98090.25;15265096;19;20102;-47
2023/03/17 04:28:17;;;;;;;1.40;0.88;;;;;;;4.67;93.21;98086.97;15264686;19;20054;-46
2023/03/17 04:33:44;;;;;;;1.00;0.75;;;;;;;4.61;80.46;98078.53;15264091;19;20035;-47
2023/03/17 04:39:10;;;;;;;1.63;0.68;;;;;;;4.70;92.75;98078.72;15280759;19;20094;-53
2023/03/17 04:44:36;;;;;;;1.05;0.70;;;;;;;4.67;81.68;98078.97;15273014;19;20023;-48
2023/03/17 04:50:03;;;;;;;1.13;0.80;;;;;;;4.67;87.97;98084.31;15279793;19;21535;-50
2023/03/17 04:55:27;;;;;;;1.10;0.80;;;;;;;4.65;85.71;98080.91;15279142;19;20038;-48
2023/03/17 05:00:52;;;;;;;1.02;0.73;;;;;;;4.59;97.40;98083.16;15277019;19;20082;-48
2023/03/17 05:06:19;;;;;;;1.25;0.75;;;;;;;4.56;88.39;98080.75;15270884;19;20021;-50
2023/03/17 05:11:44;;;;;;;0.70;0.70;;;;;;;4.58;83.67;98092.13;15278062;19;20082;-48
2023/03/17 05:17:08;;;;;;;1.15;0.60;;;;;;;4.50;83.07;98089.28;15277585;19;20010;-46
2023/03/17 05:22:36;;;;;;;0.90;0.68;;;;;;;4.44;98.23;98084.47;15276759;19;20023;-47
2023/03/17 05:28:00;;;;;;;1.00;0.70;;;;;;;4.36;94.41;98079.78;15272325;19;20026;-49
2023/03/17 05:33:26;;;;;;;1.08;0.82;;;;;;;4.41;89.26;98069.56;15272961;19;20085;-49
2023/03/17 05:38:55;;;;;;;1.30;0.80;;;;;;;4.38;84.52;98061.81;15279866;19;20018;-49
2023/03/17 05:44:27;;;;;;;0.70;0.60;;;;;;;4.36;86.60;98068.28;15273016;19;20021;-49
2023/03/17 05:49:51;;;;;;;1.97;0.97;;;;;;;4.39;84.00;98081.34;15277193;19;20070;-51
2023/03/17 05:55:19;;;;;;;1.42;0.80;;;;;;;4.37;87.34;98085.97;15275333;19;20049;-47
2023/03/17 06:00:45;;;;;;;0.95;0.80;;;;;;;4.39;92.95;98060.84;15269398;19;20026;-49
2023/03/17 06:06:10;;;;;;;1.30;0.90;;;;;;;4.36;99.89;98046.94;15274169;19;20018;-47
2023/03/17 06:11:37;;;;;;;0.98;0.80;;;;;;;4.35;100.00;98056.75;15275121;19;20022;-50
2023/03/17 06:17:03;;;;;;;2.35;0.93;;;;;;;4.33;100.00;98040.06;15274503;19;20264;-51
2023/03/17 06:22:28;;;;;;;1.35;0.88;;;;;;;4.32;100.00;98035.69;15271109;19;20475;-49
2023/03/17 06:27:56;;;;;;;1.63;0.90;;;;;;;4.34;100.00;98020.41;15270359;19;20364;-51
2023/03/17 06:33:22;;;;;;;1.65;0.90;;;;;;;4.38;100.00;98013.81;15264242;19;20042;-49
2023/03/17 06:38:48;;;;;;;1.60;0.90;;;;;;;4.47;100.00;98041.53;15273854;19;20050;-50
2023/03/17 06:44:22;;;;;;;1.35;0.98;;;;;;;4.53;100.00;98050.81;15269348;19;20017;-52
2023/03/17 06:49:47;;;;;;;1.25;1.00;;;;;;;4.57;100.00;98063.75;15271926;19;20018;-49
2023/03/17 06:55:13;;;;;;;3.85;1.60;;;;;;;4.58;96.93;98068.13;15270650;19;20012;-53
2023/03/17 07:00:41;;;;;;;1.27;1.13;;;;;;;4.67;100.00;98073.63;15269812;19;20022;-49
2023/03/17 07:06:06;;;;;;;1.35;1.02;;;;;;;4.78;100.00;98060.22;15266003;19;20029;-50
2023/03/17 07:11:31;;;;;;;1.55;1.00;;;;;;;4.94;99.97;98063.25;15270908;19;20091;-51
2023/03/17 07:16:59;;;;;;;0.80;0.80;;;;;;;5.07;100.00;98064.84;15269872;19;20507;-49
2023/03/17 07:22:24;;;;;;;1.92;1.05;;;;;;;5.19;91.07;98053.06;15268934;19;20039;-48
2023/03/17 07:27:49;;;;;;;1.83;1.10;;;;;;;5.32;97.52;98062.66;15268856;19;20039;-48
2023/03/17 07:33:16;;;;;;;1.35;1.00;;;;;;;5.44;93.55;98050.88;15266577;19;20030;-48
2023/03/17 07:38:42;;;;;;;1.10;0.93;;;;;;;5.62;96.21;98058.19;15265801;19;20033;-47
2023/03/17 07:44:14;;;;;;;1.52;0.90;;;;;;;5.83;85.58;98056.25;15263326;19;20045;-48
2023/03/17 07:49:42;;;;;;;2.60;1.00;;;;;;;6.06;92.13;98042.63;15268322;19;20074;-49
2023/03/17 07:55:07;;;;;;;1.85;0.82;;;;;;;6.30;88.67;98038.66;15267238;19;20029;-51
2023/03/17 08:00:33;;;;;;;1.52;1.02;;;;;;;6.52;77.33;98037.47;15269230;19;20082;-47
2023/03/17 08:06:04;;;;;;;1.23;0.68;;;;;;;6.95;91.33;98035.22;15263158;19;20043;-45
2023/03/17 08:11:29;;;;;;;1.48;0.90;;;;;;;7.20;88.07;98038.22;15273765;19;20014;-46
2023/03/17 08:16:55;;;;;;;2.60;0.90;;;;;;;7.39;76.34;98053.34;15284164;19;20089;-46
2023/03/17 08:22:24;;;;;;;1.30;0.80;;;;;;;7.58;74.36;98047.00;15279396;19;20370;-44
2023/03/17 08:27:49;;;;;;;1.25;0.80;;;;;;;7.68;75.75;98039.75;15276512;19;20022;-50
2023/03/17 08:33:14;;;;;;;2.10;0.93;;;;;;;7.88;73.69;98036.91;15275972;19;20412;-50
2023/03/17 08:38:44;;;;;;;1.13;0.85;;;;;;;8.10;71.20;98043.66;15282858;19;20384;-44
2023/03/17 08:44:10;;;;;;;1.58;0.90;;;;;;;8.35;72.38;98030.38;15271990;19;20574;-45
2023/03/17 08:49:36;;;;;;;1.35;0.70;;;;;;;8.51;75.66;98032.41;15272568;19;20010;-44
2023/03/17 08:55:03;;;;;;;1.45;0.80;;;;;;;8.72;63.96;98028.50;15269030;19;20048;-46
2023/03/17 09:00:30;;;;;;;1.25;0.80;;;;;;;8.98;67.12;98025.75;15275612;19;20018;-52
2023/03/17 09:05:56;;;;;;;1.50;0.80;;;;;;;9.18;61.70;98029.03;15278294;19;20021;-49
2023/03/17 09:11:26;;;;;;;1.83;0.98;;;;;;;9.45;66.39;98018.19;15278948;19;20014;-43
2023/03/17 09:16:51;;;;;;;0.90;0.70;;;;;;;9.70;60.89;98024.50;15274621;19;20010;-47
2023/03/17 09:22:21;;;;;;;0.95;0.70;;;;;;;9.87;59.03;98030.75;15272935;19;20394;-47
2023/03/17 09:27:51;;;;;;;1.58;0.80;;;;;;;10.13;56.52;98029.72;15278112;19;20021;-46
2023/03/17 09:33:17;;;;;;;1.55;0.60;;;;;;;10.33;57.56;98016.75;15271759;19;20018;-48
2023/03/17 09:38:42;;;;;;;0.75;0.63;;;;;;;10.45;54.11;98022.69;15280840;19;20011;-45
2023/03/17 09:44:27;;;;;;;0.80;0.70;;;;;;;10.61;53.47;98019.13;15270989;19;20360;-49
2023/03/17 09:49:57;;;;;;;0.55;0.50;;;;;;;10.91;53.38;98014.84;15268424;19;20081;-46
2023/03/17 09:55:33;;;;;;;0.63;0.60;;;;;;;11.10;51.86;98016.28;15281161;19;20027;-47
2023/03/17 10:01:01;;;;;;;1.33;0.75;;;;;;;11.33;53.70;98002.03;15270109;19;21327;-48
2023/03/17 10:06:35;;;;;;;0.70;0.60;;;;;;;11.52;50.53;98002.59;15261897;19;20470;-48
2023/03/17 10:12:10;;;;;;;0.65;0.57;;;;;;;11.76;52.48;98006.97;15271768;19;20020;-48
2023/03/17 10:17:41;;;;;;;0.50;0.50;;;;;;;11.79;52.03;98005.78;15272486;19;20013;-50
2023/03/17 10:23:11;;;;;;;3.17;0.80;;;;;;;11.94;54.76;97990.47;15266295;19;20013;-48
2023/03/17 10:28:37;;;;;;;0.77;0.63;;;;;;;12.07;51.00;97975.56;15268815;19;20018;-49
2023/03/17 10:34:13;;;;;;;0.88;0.60;;;;;;;12.16;53.00;97985.28;15265970;19;20363;-45
2023/03/17 10:39:46;;;;;;;0.80;0.70;;;;;;;12.36;51.09;97982.06;15273798;19;20014;-46
2023/03/17 10:45:24;;;;;;;0.85;0.70;;;;;;;12.46;53.69;97969.13;15273806;19;20025;-46
2023/03/17 10:50:55;;;;;;;0.70;0.70;;;;;;;12.62;49.48;97960.84;15270785;19;20011;-47
2023/03/17 10:56:28;;;;;;;1.27;0.52;;;;;;;12.83;51.74;97953.84;15274384;19;20070;-50
2023/03/17 11:01:55;;;;;;;2.83;0.70;;;;;;;13.00;51.56;97953.63;15273781;19;20027;-46
2023/03/17 11:07:28;;;;;;;1.63;0.50;;;;;;;13.33;49.34;97937.00;15271763;19;20013;-49
2023/03/17 11:12:57;;;;;;;1.05;0.60;;;;;;;13.61;51.47;97923.59;15272372;19;20014;-47
2023/03/17 11:18:27;;;;;;;0.40;0.40;;;;;;;13.87;51.85;97928.41;15273607;19;20467;-46
2023/03/17 11:24:03;;;;;;;0.90;0.60;;;;;;;14.17;48.69;97936.34;15259409;19;20523;-49
2023/03/17 11:29:41;;;;;;;1.15;0.60;;;;;;;14.30;48.10;97929.34;15262193;19;20817;-45
2023/03/17 11:35:26;;;;;;;1.08;0.50;;;;;;;14.45;45.86;97916.53;15262378;19;20018;-47
2023/03/17 11:41:23;;;;;;;1.63;0.70;;;;;;;14.62;46.72;97924.38;15263007;19;20518;-46
2023/03/17 11:46:53;;;;;;;1.33;0.63;;;;;;;14.69;46.76;97917.13;15270313;19;20015;-47
2023/03/17 11:52:27;;;;;;;0.45;0.45;;;;;;;14.87;50.28;97910.34;15270899;19;20019;-49
2023/03/17 11:57:58;;;;;;;3.38;0.80;;;;;;;15.10;46.84;97901.88;15272336;19;20022;-47
2023/03/17 12:03:31;;;;;;;1.33;0.60;;;;;;;15.27;50.29;97891.47;15260471;19;20039;-52
2023/03/17 12:09:02;;;;;;;2.38;1.20;;;;;;;15.43;48.73;97884.00;15267696;19;20475;-47
2023/03/17 12:14:37;;;;;;;0.60;0.60;;;;;;;15.61;47.04;97878.81;15264721;19;20074;-48
2023/03/17 12:20:15;;;;;;;1.45;0.50;;;;;;;15.46;50.00;97886.31;15271810;19;20398;-48
2023/03/17 12:25:42;;;;;;;0.60;0.50;;;;;;;15.66;54.36;97881.75;15271874;19;20698;-48
2023/03/17 12:31:13;;;;;;;0.60;0.60;;;;;;;15.86;49.56;97872.78;15268136;19;20015;-47
2023/03/17 12:36:38;;;;;;;1.55;0.57;;;;;;;16.09;50.64;97869.66;15270699;19;20015;-47
2023/03/17 12:42:22;;;;;;;2.20;1.70;;;;;;;16.38;49.33;97867.50;15268473;19;20022;-48
2023/03/17 12:48:01;;;;;;;1.92;0.60;;;;;;;16.62;48.00;97860.56;15268956;19;20430;-48
2023/03/17 12:53:30;;;;;;;0.85;0.60;;;;;;;16.76;47.34;97855.91;15267495;19;20014;-52
2023/03/17 12:59:01;;;;;;;0.60;0.50;;;;;;;17.09;47.84;97854.13;15284537;19;20441;-48
2023/03/17 13:04:31;;;;;;;1.25;0.60;;;;;;;17.41;49.66;97852.22;15278392;19;20018;-52
2023/03/17 13:09:57;;;;;;;0.57;0.57;;;;;;;17.69;48.52;97840.09;15280284;19;20021;-49
2023/03/17 13:15:30;;;;;;;1.80;0.93;;;;;;;17.90;46.91;97839.94;15276744;19;20036;-47
2023/03/17 13:21:15;;;;;;;0.57;0.52;;;;;;;18.15;49.17;97831.75;15275273;19;20395;-51
2023/03/17 13:27:03;;;;;;;1.05;0.60;;;;;;;18.39;45.41;97821.88;15280446;19;20086;-52
2023/03/17 13:32:44;;;;;;;0.45;0.45;;;;;;;18.70;50.12;97811.84;15278998;19;20018;-50
2023/03/17 13:38:33;;;;;;;0.60;0.50;;;;;;;18.98;49.84;97809.63;15281068;19;20011;-49
2023/03/17 13:44:29;;;;;;;0.70;0.60;;;;;;;19.12;44.23;97819.31;15277738;19;20018;-49
2023/03/17 13:49:56;;;;;;;0.70;0.50;;;;;;;19.36;45.41;97803.00;14766431;19;10000806;-48
2023/03/17 13:55:46;;;;;;;2.15;0.60;;;;;;;19.49;41.26;97796.50;15273629;19;20348;-49
2023/03/17 14:01:14;;;;;;;2.42;0.43;;;;;;;19.46;39.98;97796.97;15278713;19;20020;-48
2023/03/17 14:06:44;;;;;;;0.65;0.30;;;;;;;19.50;38.06;97789.97;15278586;19;20077;-50
2023/03/17 14:12:19;;;;;;;0.35;0.22;;;;;;;19.76;37.08;97785.13;15271059;19;20094;-47
2023/03/17 14:17:50;;;;;;;0.43;0.40;;;;;;;19.74;36.33;97777.19;15274933;19;20025;-49
2023/03/17 14:23:15;;;;;;;1.08;0.40;;;;;;;19.75;35.78;97773.38;15265744;19;20375;-49
2023/03/17 14:28:43;;;;;;;0.40;0.22;;;;;;;19.60;35.79;97776.53;15274509;19;20026;-48
2023/03/17 14:34:15;;;;;;;1.02;0.30;;;;;;;19.30;35.00;97771.16;15265748;19;20349;-48
2023/03/17 14:39:39;;;;;;;0.65;0.30;;;;;;;19.16;39.10;97774.09;15269962;19;20019;-49
2023/03/17 14:45:10;;;;;;;1.00;0.30;;;;;;;19.12;38.31;97775.63;15270877;19;20070;-48
2023/03/17 14:50:38;;;;;;;1.35;1.25;;;;;;;18.91;39.55;97777.78;15270073;19;20021;-52
2023/03/17 14:56:03;;;;;;;2.08;1.90;;;;;;;19.03;39.40;97764.19;15273535;19;20474;-48
2023/03/17 15:01:42;;;;;;;3.30;1.50;;;;;;;19.06;42.18;97766.47;15273914;19;20019;-50
2023/03/17 15:07:08;;;;;;;2.70;0.60;;;;;;;18.91;42.56;97752.38;15272779;19;20010;-47
2023/03/17 15:12:34;;;;;;;0.75;0.40;;;;;;;18.81;45.19;97752.09;15270155;19;20328;-48
2023/03/17 15:18:08;;;;;;;2.20;0.60;;;;;;;18.68;45.66;97753.94;15269814;19;20365;-48
2023/03/17 15:23:37;;;;;;;1.00;0.50;;;;;;;18.54;46.79;97750.56;15268816;19;20033;-48
2023/03/17 15:29:02;;;;;;;2.25;0.45;;;;;;;18.43;44.75;97745.88;15270477;19;20018;-48
2023/03/17 15:34:29;;;;;;;1.13;0.70;;;;;;;18.41;47.73;97745.28;15269677;19;20018;-49
2023/03/17 15:39:55;;;;;;;1.17;0.80;;;;;;;18.36;48.16;97736.94;15270716;19;20420;-48
2023/03/17 15:45:23;;;;;;;0.90;0.50;;;;;;;18.20;48.32;97741.09;15264290;19;20019;-52
2023/03/17 15:50:51;;;;;;;1.08;0.60;;;;;;;18.05;47.17;97734.13;15259356;19;20089;-51
2023/03/17 15:56:26;;;;;;;1.52;0.60;;;;;;;17.92;47.59;97740.53;15270165;19;20470;-48
2023/03/17 16:01:58;;;;;;;0.70;0.60;;;;;;;17.76;48.58;97733.78;15263430;19;20843;-50
2023/03/17 16:07:26;;;;;;;1.63;0.77;;;;;;;17.50;50.43;97737.59;15269590;19;20017;-52
2023/03/17 16:12:50;;;;;;;1.20;0.85;;;;;;;17.27;52.71;97732.75;15258018;19;20086;-48
2023/03/17 16:18:19;;;;;;;3.00;0.90;;;;;;;17.00;50.97;97731.06;15270793;19;20074;-50
2023/03/17 16:23:47;;;;;;;0.77;0.70;;;;;;;16.74;53.31;97732.06;15258778;19;20098;-48
2023/03/17 16:29:15;;;;;;;1.80;0.73;;;;;;;16.52;51.46;97726.94;15264634;19;20011;-48
2023/03/17 16:34:39;;;;;;;1.85;0.70;;;;;;;16.32;54.58;97733.28;15275020;19;20082;-50
2023/03/17 16:40:14;;;;;;;1.48;0.80;;;;;;;15.96;51.99;97734.66;15274777;19;20015;-48
2023/03/17 16:45:41;;;;;;;1.30;1.00;;;;;;;15.79;54.91;97731.53;15279062;19;20022;-48
2023/03/17 16:51:07;;;;;;;2.00;1.00;;;;;;;15.50;54.52;97736.41;15274709;19;20497;-50
2023/03/17 16:56:35;;;;;;;3.53;1.00;;;;;;;15.34;56.99;97732.22;15278243;19;20042;-47
2023/03/17 17:02:06;;;;;;;1.15;0.85;;;;;;;15.07;56.39;97745.78;15275631;19;20029;-48
2023/03/17 17:07:32;;;;;;;1.17;0.80;;;;;;;14.87;57.92;97737.59;15280271;19;20458;-47
2023/03/17 17:12:59;;;;;;;1.83;0.90;;;;;;;14.69;60.94;97740.91;15279041;19;20015;-49
2023/03/17 17:18:26;;;;;;;1.50;0.80;;;;;;;14.48;60.74;97745.41;15282770;19;20086;-49
2023/03/17 17:23:54;;;;;;;1.25;0.90;;;;;;;14.32;62.11;97746.59;15271053;19;20534;-47
2023/03/17 17:29:22;;;;;;;0.95;0.95;;;;;;;14.11;61.21;97733.16;15275324;19;20036;-47
2023/03/17 17:34:48;;;;;;;1.30;0.90;;;;;;;13.97;64.34;97743.06;15273210;19;20025;-49
2023/03/17 17:40:16;;;;;;;1.33;1.00;;;;;;;13.76;64.85;97758.38;15277810;19;20013;-48
2023/03/17 17:45:43;;;;;;;2.28;1.02;;;;;;;13.58;67.46;97750.75;15278625;19;20022;-48
2023/03/17 17:51:08;;;;;;;1.75;1.00;;;;;;;13.45;66.95;97756.06;15274025;19;20019;-47
2023/03/17 17:56:36;;;;;;;1.35;1.00;;;;;;;13.26;70.71;97753.78;15276536;19;20030;-49
2023/03/17 18:02:05;;;;;;;2.10;1.10;;;;;;;13.13;72.41;97753.69;15269855;19;20015;-48
2023/03/17 18:07:29;;;;;;;2.05;1.30;;;;;;;12.90;75.75;97753.91;15274300;19;20526;-54
2023/03/17 18:12:55;;;;;;;3.08;1.30;;;;;;;12.84;74.82;97760.91;15261395;19;20015;-52
2023/03/17 18:18:22;;;;;;;2.10;1.30;;;;;;;12.75;79.91;97764.78;15276560;19;20021;-52
2023/03/17 18:23:48;;;;;;;1.80;1.30;;;;;;;12.66;81.38;97771.28;15283040;19;20824;-55
2023/03/17 18:29:14;;;;;;;2.05;1.40;;;;;;;12.55;83.22;97764.53;15276620;19;20013;-52
2023/03/17 18:34:45;;;;;;;3.67;1.60;;;;;;;12.46;86.07;97769.22;15273814;19;20022;-55
2023/03/17 18:40:09;;;;;;;1.67;1.27;;;;;;;12.33;87.65;97761.78;15275487;19;20006;-53
2023/03/17 18:45:36;;;;;;;3.55;1.60;;;;;;;12.20;85.22;97781.34;15265694;19;20010;-52
2023/03/17 18:51:03;;;;;;;1.80;1.40;;;;;;;12.12;82.33;97781.44;15269946;19;20695;-52
2023/03/17 18:56:28;;;;;;;1.73;1.40;;;;;;;11.99;81.61;97788.34;15270534;19;20018;-53
2023/03/17 19:01:53;;;;;;;2.22;1.48;;;;;;;11.97;82.20;97793.06;15266780;19;20033;-52
2023/03/17 19:07:21;;;;;;;2.08;1.48;;;;;;;11.87;76.36;97793.34;15275326;19;20026;-51
2023/03/17 19:12:46;;;;;;;2.63;1.60;;;;;;;11.81;80.37;97793.25;15262901;19;20105;-53
2023/03/17 19:18:11;;;;;;;1.60;1.50;;;;;;;11.70;80.24;97803.44;15273458;19;20098;-53
2023/03/17 19:23:38;;;;;;;2.47;1.60;;;;;;;11.65;83.16;97791.53;15264685;19;20426;-54
2023/03/17 19:29:03;;;;;;;2.85;1.60;;;;;;;11.61;87.89;97788.38;15273193;19;20014;-53
2023/03/17 19:34:27;;;;;;;2.80;1.50;;;;;;;11.50;87.60;97784.28;15270690;19;20025;-52
2023/03/17 19:39:54;;;;;;;1.98;1.40;;;;;;;11.37;83.58;97792.97;15270450;19;20025;-53
2023/03/17 19:45:20;;;;;;;2.03;1.45;;;;;;;11.35;89.84;97794.19;15264907;19;20378;-56
2023/03/17 19:50:45;;;;;;;1.92;1.55;;;;;;;11.27;92.09;97794.25;15266210;19;20014;-52
2023/03/17 19:56:14;;;;;;;2.30;1.63;;;;;;;11.20;96.35;97794.13;15265365;19;20015;-53
2023/03/17 20:01:40;;;;;;;2.10;1.40;;;;;;;11.09;90.90;97785.47;15264691;19;20022;-53
2023/03/17 20:07:12;;;;;;;4.22;1.60;;;;;;;11.03;92.39;97780.78;15281903;19;20090;-52
2023/03/17 20:12:42;;;;;;;3.10;1.60;;;;;;;10.99;91.70;97776.78;15276983;19;20043;-54
2023/03/17 20:18:07;;;;;;;2.83;1.73;;;;;;;10.92;96.37;97773.09;15281463;19;20020;-54
2023/03/17 20:23:32;;;;;;;1.73;1.45;;;;;;;10.81;96.13;97768.13;15280016;19;20378;-55
2023/03/17 20:29:01;;;;;;;1.77;1.42;;;;;;;10.80;97.21;97767.31;15286847;19;20056;-56
2023/03/17 20:34:26;;;;;;;1.75;1.48;;;;;;;10.74;96.78;97766.19;15253140;19;20022;-55
2023/03/17 20:39:53;;;;;;;2.85;1.50;;;;;;;10.64;97.12;97762.88;15254633;19;20646;-53
2023/03/17 20:45:22;;;;;;;2.88;1.77;;;;;;;10.56;91.91;97760.22;15276659;19;20658;-53
2023/03/17 20:50:48;;;;;;;1.88;1.50;;;;;;;10.54;94.14;97760.41;15281073;19;20041;-51
2023/03/17 20:56:15;;;;;;;3.05;1.60;;;;;;;10.46;90.84;97755.91;15284804;19;20027;-47
2023/03/17 21:01:45;;;;;;;4.07;1.80;;;;;;;10.44;94.62;97755.22;15282888;19;20021;-47
2023/03/17 21:07:18;;;;;;;2.80;1.80;;;;;;;10.39;95.98;97771.09;15283538;19;20459;-48
2023/03/17 21:12:44;;;;;;;2.15;1.60;;;;;;;10.38;99.84;97769.41;15282027;19;20039;-49
2023/03/17 21:18:13;;;;;;;3.70;1.70;;;;;;;10.31;100.00;97766.56;15281991;19;20015;-47
2023/03/17 21:23:40;;;;;;;2.30;1.63;;;;;;;10.30;98.15;97769.41;15280323;19;20006;-47
2023/03/17 21:29:04;;;;;;;5.13;1.90;;;;;;;10.28;100.00;97764.19;15284788;19;20032;-47
2023/03/17 21:34:33;;;;;;;2.08;1.70;;;;;;;10.22;98.27;97761.38;15274433;19;20478;-48
2023/03/17 21:39:58;;;;;;;2.20;1.80;;;;;;;10.17;100.00;97764.59;15282123;19;20106;-52
2023/03/17 21:45:23;;;;;;;2.88;1.80;;;;;;;10.11;100.00;97766.13;15279325;19;20010;-47
2023/03/17 21:50:52;;;;;;;2.50;1.60;;;;;;;10.04;100.00;97770.53;15281846;19;20018;-46
2023/03/17 21:56:19;;;;;;;2.35;1.77;;;;;;;10.00;100.00;97770.03;15280312;19;20049;-46
2023/03/17 22:01:45;;;;;;;2.30;1.60;;;;;;;10.02;100.00;97765.31;15281238;19;20027;-46
2023/03/17 22:07:19;;;;;;;2.03;1.70;;;;;;;10.00;100.00;97756.56;15278720;19;20407;-47
2023/03/17 22:12:44;;;;;;;2.75;1.85;;;;;;;9.96;100.00;97759.78;15278039;19;20023;-46
2023/03/17 22:18:09;;;;;;;3.15;2.10;;;;;;;9.91;100.00;97759.50;15279461;19;20018;-46
2023/03/17 22:23:40;;;;;;;2.28;1.85;;;;;;;9.87;100.00;97767.06;15276057;19;20022;-47
2023/03/17 22:29:06;;;;;;;4.15;1.80;;;;;;;9.87;100.00;97759.00;15275967;19;20041;-46
2023/03/17 22:34:31;;;;;;;2.85;1.80;;;;;;;9.85;100.00;97767.22;15271158;19;20057;-47
2023/03/17 22:40:02;;;;;;;3.22;1.95;;;;;;;9.83;100.00;97757.66;15277944;19;20479;-45
2023/03/17 22:45:35;;;;;;;2.38;1.88;;;;;;;9.80;100.00;97747.22;15267443;19;20015;-46
2023/03/17 22:51:03;;;;;;;3.25;1.75;;;;;;;9.83;100.00;97753.09;15272073;19;20029;-46
2023/03/17 22:56:32;;;;;;;3.03;2.00;;;;;;;9.80;100.00;97760.69;15272786;19;20022;-47
2023/03/17 23:01:57;;;;;;;3.05;2.05;;;;;;;9.78;98.42;97766.25;15270585;19;20039;-45
2023/03/17 23:07:28;;;;;;;2.20;1.80;;;;;;;9.85;92.45;97763.72;15278283;19;20018;-46
2023/03/17 23:13:11;;;;;;;3.25;1.83;;;;;;;9.94;87.29;97775.25;15273215;19;20373;-47
2023/03/17 23:18:35;;;;;;;4.93;2.05;;;;;;;10.01;89.24;97777.09;15274580;19;20031;-47
2023/03/17 23:24:03;;;;;;;4.40;2.03;;;;;;;10.11;84.32;97771.50;15265176;19;20021;-47
2023/03/17 23:29:31;;;;;;;2.45;1.80;;;;;;;10.09;90.82;97770.00;15274556;19;20510;-47
2023/03/17 23:34:56;;;;;;;3.15;2.00;;;;;;;10.07;96.24;97777.41;15262793;19;20015;-47
2023/03/17 23:40:22;;;;;;;2.78;1.80;;;;;;;10.08;90.21;97779.09;15268914;19;20021;-46
2023/03/17 23:45:53;;;;;;;5.85;2.00;;;;;;;10.05;87.48;97784.81;15271489;19;20094;-46
2023/03/17 23:51:19;;;;;;;4.57;2.10;;;;;;;10.02;99.96;97783.31;15268510;19;20022;-50
2023/03/17 23:56:44;;;;;;;4.18;2.03;;;;;;;10.03;91.36;97785.00;15268211;19;20017;-45
